sensor_id;sensor_type;location;lat;lon;timestamp;P1;durP1;ratioP1;P2;durP2;ratioP2
20271;SDS011;10295;49.812;9.866;2022-08-11T00:01:50;10.47;;;3.10;;
20271;SDS011;10295;49.812;9.866;2022-08-11T00:04:18;11.97;;;2.90;;
20271;SDS011;10295;49.812;9.866;2022-08-11T00:06:47;10.07;;;2.77;;
20271;SDS011;10295;49.812;9.866;2022-08-11T00:09:31;8.13;;;2.53;;
20271;SDS011;10295;49.812;9.866;2022-08-11T00:12:10;9.67;;;2.90;;
20271;SDS011;10295;49.812;9.866;2022-08-11T00:14:38;7.93;;;2.63;;
20271;SDS011;10295;49.812;9.866;2022-08-11T00:17:07;7.80;;;2.60;;
20271;SDS011;10295;49.812;9.866;2022-08-11T00:19:36;7.27;;;2.77;;
20271;SDS011;10295;49.812;9.866;2022-08-11T00:22:24;8.33;;;2.70;;
20271;SDS011;10295;49.812;9.866;2022-08-11T00:24:51;7.17;;;2.60;;
20271;SDS011;10295;49.812;9.866;2022-08-11T00:27:30;7.23;;;2.80;;
20271;SDS011;10295;49.812;9.866;2022-08-11T00:29:58;8.70;;;2.80;;
20271;SDS011;10295;49.812;9.866;2022-08-11T00:32:25;7.43;;;2.87;;
20271;SDS011;10295;49.812;9.866;2022-08-11T00:34:53;8.87;;;2.70;;
20271;SDS011;10295;49.812;9.866;2022-08-11T00:37:44;10.03;;;2.63;;
20271;SDS011;10295;49.812;9.866;2022-08-11T00:40:17;7.23;;;2.80;;
20271;SDS011;10295;49.812;9.866;2022-08-11T00:45:39;7.30;;;2.50;;
20271;SDS011;10295;49.812;9.866;2022-08-11T00:48:25;6.50;;;2.63;;
20271;SDS011;10295;49.812;9.866;2022-08-11T00:53:45;8.33;;;2.90;;
20271;SDS011;10295;49.812;9.866;2022-08-11T01:02:13;7.47;;;2.60;;
20271;SDS011;10295;49.812;9.866;2022-08-11T01:26:13;9.37;;;2.90;;
20271;SDS011;10295;49.812;9.866;2022-08-11T01:48:08;9.17;;;3.10;;
20271;SDS011;10295;49.812;9.866;2022-08-11T01:53:23;9.33;;;3.17;;
20271;SDS011;10295;49.812;9.866;2022-08-11T01:59:02;10.83;;;2.90;;
20271;SDS011;10295;49.812;9.866;2022-08-11T02:04:05;7.80;;;2.67;;
20271;SDS011;10295;49.812;9.866;2022-08-11T02:07:23;11.27;;;3.30;;
20271;SDS011;10295;49.812;9.866;2022-08-11T02:17:46;6.40;;;2.63;;
20271;SDS011;10295;49.812;9.866;2022-08-11T02:20:23;8.60;;;2.57;;
20271;SDS011;10295;49.812;9.866;2022-08-11T02:23:20;10.40;;;3.10;;
20271;SDS011;10295;49.812;9.866;2022-08-11T02:27:07;9.47;;;3.37;;
20271;SDS011;10295;49.812;9.866;2022-08-11T02:29:34;8.77;;;3.20;;
20271;SDS011;10295;49.812;9.866;2022-08-11T02:32:06;8.43;;;3.07;;
20271;SDS011;10295;49.812;9.866;2022-08-11T02:40:16;10.07;;;3.30;;
20271;SDS011;10295;49.812;9.866;2022-08-11T02:42:55;7.43;;;2.80;;
20271;SDS011;10295;49.812;9.866;2022-08-11T02:45:33;8.30;;;3.13;;
20271;SDS011;10295;49.812;9.866;2022-08-11T02:53:53;9.07;;;3.23;;
20271;SDS011;10295;49.812;9.866;2022-08-11T03:04:59;7.87;;;3.13;;
20271;SDS011;10295;49.812;9.866;2022-08-11T03:07:33;10.37;;;3.43;;
20271;SDS011;10295;49.812;9.866;2022-08-11T03:18:47;12.40;;;3.57;;
20271;SDS011;10295;49.812;9.866;2022-08-11T03:21:22;13.70;;;3.33;;
20271;SDS011;10295;49.812;9.866;2022-08-11T03:24:12;9.40;;;3.50;;
20271;SDS011;10295;49.812;9.866;2022-08-11T03:31:45;9.53;;;3.67;;
20271;SDS011;10295;49.812;9.866;2022-08-11T03:34:17;13.33;;;3.63;;
20271;SDS011;10295;49.812;9.866;2022-08-11T03:37:10;9.97;;;3.67;;
20271;SDS011;10295;49.812;9.866;2022-08-11T03:45:16;9.67;;;3.60;;
20271;SDS011;10295;49.812;9.866;2022-08-11T04:16:51;10.47;;;3.77;;
20271;SDS011;10295;49.812;9.866;2022-08-11T04:20:15;10.30;;;4.13;;
20271;SDS011;10295;49.812;9.866;2022-08-11T04:25:06;10.57;;;3.60;;
20271;SDS011;10295;49.812;9.866;2022-08-11T04:32:47;8.57;;;3.53;;
20271;SDS011;10295;49.812;9.866;2022-08-11T04:48:44;9.07;;;3.50;;
20271;SDS011;10295;49.812;9.866;2022-08-11T04:51:47;10.48;;;3.45;;
20271;SDS011;10295;49.812;9.866;2022-08-11T04:57:32;11.68;;;3.17;;
20271;SDS011;10295;49.812;9.866;2022-08-11T05:00:19;7.70;;;3.13;;
20271;SDS011;10295;49.812;9.866;2022-08-11T05:06:21;8.18;;;3.30;;
20271;SDS011;10295;49.812;9.866;2022-08-11T05:09:07;9.35;;;3.55;;
20271;SDS011;10295;49.812;9.866;2022-08-11T05:16:58;8.70;;;3.20;;
20271;SDS011;10295;49.812;9.866;2022-08-11T05:19:45;8.27;;;3.00;;
20271;SDS011;10295;49.812;9.866;2022-08-11T05:22:32;9.60;;;3.00;;
20271;SDS011;10295;49.812;9.866;2022-08-11T05:25:28;7.75;;;2.80;;
20271;SDS011;10295;49.812;9.866;2022-08-11T05:28:42;9.18;;;2.80;;
20271;SDS011;10295;49.812;9.866;2022-08-11T05:31:48;9.32;;;3.17;;
20271;SDS011;10295;49.812;9.866;2022-08-11T05:34:42;12.00;;;3.17;;
20271;SDS011;10295;49.812;9.866;2022-08-11T05:40:11;7.60;;;3.00;;
20271;SDS011;10295;49.812;9.866;2022-08-11T05:42:58;11.45;;;3.13;;
20271;SDS011;10295;49.812;9.866;2022-08-11T05:45:44;10.25;;;3.42;;
20271;SDS011;10295;49.812;9.866;2022-08-11T05:48:40;11.65;;;3.50;;
20271;SDS011;10295;49.812;9.866;2022-08-11T05:51:34;8.98;;;2.90;;
20271;SDS011;10295;49.812;9.866;2022-08-11T05:54:23;10.32;;;3.05;;
20271;SDS011;10295;49.812;9.866;2022-08-11T05:57:21;8.55;;;2.95;;
20271;SDS011;10295;49.812;9.866;2022-08-11T06:00:11;9.65;;;2.88;;
20271;SDS011;10295;49.812;9.866;2022-08-11T06:02:48;13.50;;;3.22;;
20271;SDS011;10295;49.812;9.866;2022-08-11T06:05:15;11.27;;;3.15;;
20271;SDS011;10295;49.812;9.866;2022-08-11T06:07:45;8.82;;;2.92;;
20271;SDS011;10295;49.812;9.866;2022-08-11T06:10:24;12.57;;;3.10;;
20271;SDS011;10295;49.812;9.866;2022-08-11T06:12:52;9.00;;;2.95;;
20271;SDS011;10295;49.812;9.866;2022-08-11T06:15:21;9.07;;;3.10;;
20271;SDS011;10295;49.812;9.866;2022-08-11T06:17:48;10.57;;;3.10;;
20271;SDS011;10295;49.812;9.866;2022-08-11T06:20:16;9.88;;;2.92;;
20271;SDS011;10295;49.812;9.866;2022-08-11T06:22:45;12.65;;;3.13;;
20271;SDS011;10295;49.812;9.866;2022-08-11T06:25:18;11.45;;;3.00;;
20271;SDS011;10295;49.812;9.866;2022-08-11T06:27:45;11.02;;;3.28;;
20271;SDS011;10295;49.812;9.866;2022-08-11T06:30:13;8.25;;;3.00;;
20271;SDS011;10295;49.812;9.866;2022-08-11T06:32:43;10.13;;;2.85;;
20271;SDS011;10295;49.812;9.866;2022-08-11T06:48:22;9.88;;;3.00;;
20271;SDS011;10295;49.812;9.866;2022-08-11T06:50:51;11.73;;;3.28;;
20271;SDS011;10295;49.812;9.866;2022-08-11T06:53:48;8.75;;;2.83;;
20271;SDS011;10295;49.812;9.866;2022-08-11T06:56:29;6.90;;;2.72;;
20271;SDS011;10295;49.812;9.866;2022-08-11T06:59:36;10.70;;;2.90;;
20271;SDS011;10295;49.812;9.866;2022-08-11T07:02:25;10.55;;;2.65;;
20271;SDS011;10295;49.812;9.866;2022-08-11T07:05:00;12.13;;;2.87;;
20271;SDS011;10295;49.812;9.866;2022-08-11T07:10:26;9.27;;;3.20;;
20271;SDS011;10295;49.812;9.866;2022-08-11T07:13:17;10.50;;;2.60;;
20271;SDS011;10295;49.812;9.866;2022-08-11T07:16:11;10.45;;;2.65;;
20271;SDS011;10295;49.812;9.866;2022-08-11T07:18:40;10.88;;;3.15;;
20271;SDS011;10295;49.812;9.866;2022-08-11T07:21:30;13.30;;;2.90;;
20271;SDS011;10295;49.812;9.866;2022-08-11T07:24:29;11.20;;;2.75;;
20271;SDS011;10295;49.812;9.866;2022-08-11T07:27:29;8.05;;;2.20;;
20271;SDS011;10295;49.812;9.866;2022-08-11T07:30:16;13.07;;;2.80;;
20271;SDS011;10295;49.812;9.866;2022-08-11T07:32:44;10.05;;;2.92;;
20271;SDS011;10295;49.812;9.866;2022-08-11T07:35:21;9.88;;;3.10;;
20271;SDS011;10295;49.812;9.866;2022-08-11T07:37:52;13.10;;;2.80;;
20271;SDS011;10295;49.812;9.866;2022-08-11T07:40:27;17.30;;;2.90;;
20271;SDS011;10295;49.812;9.866;2022-08-11T07:42:55;10.15;;;2.83;;
20271;SDS011;10295;49.812;9.866;2022-08-11T07:45:22;11.52;;;2.63;;
20271;SDS011;10295;49.812;9.866;2022-08-11T07:48:09;14.48;;;2.90;;
20271;SDS011;10295;49.812;9.866;2022-08-11T07:50:56;9.13;;;2.70;;
20271;SDS011;10295;49.812;9.866;2022-08-11T07:53:42;11.20;;;2.40;;
20271;SDS011;10295;49.812;9.866;2022-08-11T07:56:28;9.88;;;2.60;;
20271;SDS011;10295;49.812;9.866;2022-08-11T07:59:17;13.70;;;2.65;;
20271;SDS011;10295;49.812;9.866;2022-08-11T08:02:24;9.60;;;2.60;;
20271;SDS011;10295;49.812;9.866;2022-08-11T08:05:09;11.68;;;2.83;;
20271;SDS011;10295;49.812;9.866;2022-08-11T08:07:55;5.35;;;2.20;;
20271;SDS011;10295;49.812;9.866;2022-08-11T08:10:42;10.82;;;2.63;;
20271;SDS011;10295;49.812;9.866;2022-08-11T08:13:29;8.60;;;2.60;;
20271;SDS011;10295;49.812;9.866;2022-08-11T08:16:16;9.85;;;2.33;;
20271;SDS011;10295;49.812;9.866;2022-08-11T08:19:02;8.85;;;2.40;;
20271;SDS011;10295;49.812;9.866;2022-08-11T08:21:30;10.07;;;2.35;;
20271;SDS011;10295;49.812;9.866;2022-08-11T08:23:57;10.23;;;2.50;;
20271;SDS011;10295;49.812;9.866;2022-08-11T08:26:24;6.57;;;2.50;;
20271;SDS011;10295;49.812;9.866;2022-08-11T08:29:16;6.32;;;2.40;;
20271;SDS011;10295;49.812;9.866;2022-08-11T08:32:03;7.95;;;2.40;;
20271;SDS011;10295;49.812;9.866;2022-08-11T08:34:30;8.93;;;2.58;;
20271;SDS011;10295;49.812;9.866;2022-08-11T08:36:59;6.10;;;2.33;;
20271;SDS011;10295;49.812;9.866;2022-08-11T08:39:26;9.10;;;2.55;;
20271;SDS011;10295;49.812;9.866;2022-08-11T08:41:55;9.25;;;2.58;;
20271;SDS011;10295;49.812;9.866;2022-08-11T08:44:23;10.18;;;2.70;;
20271;SDS011;10295;49.812;9.866;2022-08-11T08:47:11;6.07;;;2.25;;
20271;SDS011;10295;49.812;9.866;2022-08-11T08:50:00;6.85;;;2.08;;
20271;SDS011;10295;49.812;9.866;2022-08-11T08:52:30;6.50;;;2.13;;
20271;SDS011;10295;49.812;9.866;2022-08-11T08:55:05;7.93;;;2.15;;
20271;SDS011;10295;49.812;9.866;2022-08-11T08:57:34;5.95;;;2.42;;
20271;SDS011;10295;49.812;9.866;2022-08-11T09:00:04;7.90;;;2.40;;
20271;SDS011;10295;49.812;9.866;2022-08-11T09:02:34;9.93;;;2.60;;
20271;SDS011;10295;49.812;9.866;2022-08-11T09:05:02;8.90;;;2.60;;
20271;SDS011;10295;49.812;9.866;2022-08-11T09:07:30;8.68;;;2.50;;
20271;SDS011;10295;49.812;9.866;2022-08-11T09:10:05;9.55;;;2.40;;
20271;SDS011;10295;49.812;9.866;2022-08-11T09:12:33;13.15;;;2.60;;
20271;SDS011;10295;49.812;9.866;2022-08-11T09:15:04;8.07;;;2.45;;
20271;SDS011;10295;49.812;9.866;2022-08-11T09:20:03;8.68;;;2.33;;
20271;SDS011;10295;49.812;9.866;2022-08-11T09:22:37;6.50;;;2.42;;
20271;SDS011;10295;49.812;9.866;2022-08-11T09:25:44;9.13;;;2.42;;
20271;SDS011;10295;49.812;9.866;2022-08-11T09:28:30;7.65;;;2.60;;
20271;SDS011;10295;49.812;9.866;2022-08-11T09:30:58;7.00;;;2.10;;
20271;SDS011;10295;49.812;9.866;2022-08-11T09:33:27;5.20;;;2.33;;
20271;SDS011;10295;49.812;9.866;2022-08-11T09:35:55;8.95;;;2.25;;
20271;SDS011;10295;49.812;9.866;2022-08-11T09:38:23;9.63;;;2.50;;
20271;SDS011;10295;49.812;9.866;2022-08-11T09:41:14;7.57;;;2.58;;
20271;SDS011;10295;49.812;9.866;2022-08-11T09:43:42;4.70;;;2.10;;
20271;SDS011;10295;49.812;9.866;2022-08-11T09:46:29;7.35;;;2.35;;
20271;SDS011;10295;49.812;9.866;2022-08-11T09:48:58;8.32;;;2.70;;
20271;SDS011;10295;49.812;9.866;2022-08-11T09:51:28;9.80;;;3.22;;
20271;SDS011;10295;49.812;9.866;2022-08-11T09:53:58;9.45;;;2.47;;
20271;SDS011;10295;49.812;9.866;2022-08-11T09:56:29;13.05;;;2.53;;
20271;SDS011;10295;49.812;9.866;2022-08-11T09:59:16;7.00;;;2.33;;
20271;SDS011;10295;49.812;9.866;2022-08-11T10:01:46;7.65;;;2.45;;
20271;SDS011;10295;49.812;9.866;2022-08-11T10:04:16;7.50;;;2.40;;
20271;SDS011;10295;49.812;9.866;2022-08-11T10:06:44;8.02;;;2.30;;
20271;SDS011;10295;49.812;9.866;2022-08-11T10:12:04;8.50;;;2.40;;
20271;SDS011;10295;49.812;9.866;2022-08-11T10:14:32;5.80;;;2.35;;
20271;SDS011;10295;49.812;9.866;2022-08-11T10:17:18;7.13;;;2.28;;
20271;SDS011;10295;49.812;9.866;2022-08-11T10:19:49;6.75;;;2.22;;
20271;SDS011;10295;49.812;9.866;2022-08-11T10:22:31;6.00;;;2.60;;
20271;SDS011;10295;49.812;9.866;2022-08-11T10:25:16;11.98;;;2.40;;
20271;SDS011;10295;49.812;9.866;2022-08-11T10:28:03;7.80;;;2.42;;
20271;SDS011;10295;49.812;9.866;2022-08-11T10:30:53;5.05;;;2.10;;
20271;SDS011;10295;49.812;9.866;2022-08-11T10:33:41;6.35;;;2.05;;
20271;SDS011;10295;49.812;9.866;2022-08-11T10:36:43;6.00;;;2.42;;
20271;SDS011;10295;49.812;9.866;2022-08-11T10:39:15;5.70;;;2.10;;
20271;SDS011;10295;49.812;9.866;2022-08-11T10:41:44;7.03;;;2.53;;
20271;SDS011;10295;49.812;9.866;2022-08-11T10:44:45;9.63;;;2.03;;
20271;SDS011;10295;49.812;9.866;2022-08-11T10:47:13;5.10;;;2.05;;
20271;SDS011;10295;49.812;9.866;2022-08-11T10:50:09;5.57;;;2.15;;
20271;SDS011;10295;49.812;9.866;2022-08-11T10:52:56;7.03;;;2.10;;
20271;SDS011;10295;49.812;9.866;2022-08-11T10:55:43;8.30;;;2.20;;
20271;SDS011;10295;49.812;9.866;2022-08-11T10:58:35;6.05;;;2.00;;
20271;SDS011;10295;49.812;9.866;2022-08-11T11:03:42;7.13;;;2.10;;
20271;SDS011;10295;49.812;9.866;2022-08-11T11:08:59;4.85;;;1.90;;
20271;SDS011;10295;49.812;9.866;2022-08-11T11:11:32;8.70;;;1.90;;
20271;SDS011;10295;49.812;9.866;2022-08-11T11:14:19;5.85;;;2.10;;
20271;SDS011;10295;49.812;9.866;2022-08-11T11:17:14;8.45;;;2.20;;
20271;SDS011;10295;49.812;9.866;2022-08-11T11:20:00;7.40;;;2.10;;
20271;SDS011;10295;49.812;9.866;2022-08-11T11:22:29;10.63;;;2.30;;
20271;SDS011;10295;49.812;9.866;2022-08-11T11:25:12;6.95;;;2.22;;
20271;SDS011;10295;49.812;9.866;2022-08-11T11:30:22;7.97;;;2.03;;
20271;SDS011;10295;49.812;9.866;2022-08-11T11:35:29;9.48;;;2.15;;
20271;SDS011;10295;49.812;9.866;2022-08-11T11:38:02;5.78;;;1.67;;
20271;SDS011;10295;49.812;9.866;2022-08-11T11:40:39;4.63;;;1.80;;
20271;SDS011;10295;49.812;9.866;2022-08-11T11:43:06;5.78;;;1.88;;
20271;SDS011;10295;49.812;9.866;2022-08-11T11:45:34;4.93;;;1.80;;
20271;SDS011;10295;49.812;9.866;2022-08-11T11:48:01;5.60;;;1.92;;
20271;SDS011;10295;49.812;9.866;2022-08-11T11:50:32;5.75;;;1.83;;
20271;SDS011;10295;49.812;9.866;2022-08-11T11:53:07;6.32;;;1.90;;
20271;SDS011;10295;49.812;9.866;2022-08-11T11:55:35;7.57;;;2.03;;
20271;SDS011;10295;49.812;9.866;2022-08-11T11:58:03;7.45;;;1.95;;
20271;SDS011;10295;49.812;9.866;2022-08-11T12:00:50;5.53;;;1.95;;
20271;SDS011;10295;49.812;9.866;2022-08-11T12:03:36;5.47;;;1.90;;
20271;SDS011;10295;49.812;9.866;2022-08-11T12:06:06;5.95;;;1.75;;
20271;SDS011;10295;49.812;9.866;2022-08-11T12:08:33;7.88;;;2.05;;
20271;SDS011;10295;49.812;9.866;2022-08-11T12:11:03;6.70;;;1.92;;
20271;SDS011;10295;49.812;9.866;2022-08-11T12:13:51;9.02;;;2.10;;
20271;SDS011;10295;49.812;9.866;2022-08-11T12:16:18;5.60;;;1.90;;
20271;SDS011;10295;49.812;9.866;2022-08-11T12:19:02;5.18;;;2.10;;
20271;SDS011;10295;49.812;9.866;2022-08-11T12:21:29;5.55;;;1.90;;
20271;SDS011;10295;49.812;9.866;2022-08-11T12:23:58;5.65;;;1.90;;
20271;SDS011;10295;49.812;9.866;2022-08-11T12:26:45;5.38;;;1.90;;
20271;SDS011;10295;49.812;9.866;2022-08-11T12:29:42;8.95;;;1.90;;
20271;SDS011;10295;49.812;9.866;2022-08-11T12:32:09;5.70;;;1.92;;
20271;SDS011;10295;49.812;9.866;2022-08-11T12:34:36;7.18;;;2.00;;
20271;SDS011;10295;49.812;9.866;2022-08-11T12:37:04;7.82;;;2.15;;
20271;SDS011;10295;49.812;9.866;2022-08-11T12:39:41;9.00;;;2.35;;
20271;SDS011;10295;49.812;9.866;2022-08-11T12:42:48;4.65;;;1.83;;
20271;SDS011;10295;49.812;9.866;2022-08-11T12:45:48;6.70;;;2.05;;
20271;SDS011;10295;49.812;9.866;2022-08-11T12:48:17;5.75;;;1.95;;
20271;SDS011;10295;49.812;9.866;2022-08-11T12:51:24;6.60;;;2.20;;
20271;SDS011;10295;49.812;9.866;2022-08-11T12:54:43;9.55;;;2.35;;
20271;SDS011;10295;49.812;9.866;2022-08-11T12:57:13;7.78;;;2.00;;
20271;SDS011;10295;49.812;9.866;2022-08-11T13:00:03;6.38;;;1.80;;
20271;SDS011;10295;49.812;9.866;2022-08-11T13:02:50;6.35;;;2.10;;
20271;SDS011;10295;49.812;9.866;2022-08-11T13:05:36;4.53;;;1.75;;
20271;SDS011;10295;49.812;9.866;2022-08-11T13:08:10;7.57;;;1.92;;
20271;SDS011;10295;49.812;9.866;2022-08-11T13:10:39;5.95;;;2.00;;
20271;SDS011;10295;49.812;9.866;2022-08-11T13:13:25;5.05;;;1.80;;
20271;SDS011;10295;49.812;9.866;2022-08-11T13:16:13;5.15;;;1.83;;
20271;SDS011;10295;49.812;9.866;2022-08-11T13:18:40;9.27;;;2.08;;
20271;SDS011;10295;49.812;9.866;2022-08-11T13:21:09;8.68;;;1.80;;
20271;SDS011;10295;49.812;9.866;2022-08-11T13:23:45;7.05;;;1.92;;
20271;SDS011;10295;49.812;9.866;2022-08-11T13:26:29;6.88;;;2.05;;
20271;SDS011;10295;49.812;9.866;2022-08-11T13:29:13;9.00;;;2.10;;
20271;SDS011;10295;49.812;9.866;2022-08-11T13:31:41;6.97;;;2.08;;
20271;SDS011;10295;49.812;9.866;2022-08-11T13:34:08;6.95;;;1.83;;
20271;SDS011;10295;49.812;9.866;2022-08-11T13:36:36;5.50;;;1.70;;
20271;SDS011;10295;49.812;9.866;2022-08-11T13:39:03;10.38;;;2.08;;
20271;SDS011;10295;49.812;9.866;2022-08-11T13:41:31;7.88;;;1.98;;
20271;SDS011;10295;49.812;9.866;2022-08-11T13:44:08;8.77;;;1.90;;
20271;SDS011;10295;49.812;9.866;2022-08-11T13:46:40;8.90;;;1.90;;
20271;SDS011;10295;49.812;9.866;2022-08-11T13:49:09;7.00;;;1.90;;
20271;SDS011;10295;49.812;9.866;2022-08-11T13:51:37;4.03;;;1.90;;
20271;SDS011;10295;49.812;9.866;2022-08-11T13:54:06;7.63;;;1.83;;
20271;SDS011;10295;49.812;9.866;2022-08-11T13:56:35;6.90;;;1.90;;
20271;SDS011;10295;49.812;9.866;2022-08-11T13:59:05;8.10;;;1.95;;
20271;SDS011;10295;49.812;9.866;2022-08-11T14:01:40;6.82;;;1.75;;
20271;SDS011;10295;49.812;9.866;2022-08-11T14:06:57;8.18;;;2.05;;
20271;SDS011;10295;49.812;9.866;2022-08-11T14:09:27;4.60;;;1.80;;
20271;SDS011;10295;49.812;9.866;2022-08-11T14:11:56;6.07;;;1.98;;
20271;SDS011;10295;49.812;9.866;2022-08-11T14:14:51;8.80;;;2.08;;
20271;SDS011;10295;49.812;9.866;2022-08-11T14:17:19;4.80;;;1.80;;
20271;SDS011;10295;49.812;9.866;2022-08-11T14:20:07;4.72;;;1.70;;
20271;SDS011;10295;49.812;9.866;2022-08-11T14:22:55;6.57;;;1.70;;
20271;SDS011;10295;49.812;9.866;2022-08-11T14:25:23;7.30;;;2.20;;
20271;SDS011;10295;49.812;9.866;2022-08-11T14:28:11;7.05;;;1.75;;
20271;SDS011;10295;49.812;9.866;2022-08-11T14:31:00;7.68;;;1.90;;
20271;SDS011;10295;49.812;9.866;2022-08-11T14:33:27;7.95;;;2.05;;
20271;SDS011;10295;49.812;9.866;2022-08-11T14:36:14;8.07;;;1.77;;
20271;SDS011;10295;49.812;9.866;2022-08-11T14:38:42;5.55;;;1.80;;
20271;SDS011;10295;49.812;9.866;2022-08-11T14:41:10;7.15;;;1.90;;
20271;SDS011;10295;49.812;9.866;2022-08-11T14:43:56;7.15;;;1.83;;
20271;SDS011;10295;49.812;9.866;2022-08-11T14:46:42;6.13;;;1.80;;
20271;SDS011;10295;49.812;9.866;2022-08-11T14:49:28;7.63;;;1.80;;
20271;SDS011;10295;49.812;9.866;2022-08-11T14:51:56;6.15;;;1.60;;
20271;SDS011;10295;49.812;9.866;2022-08-11T14:54:24;4.65;;;1.55;;
20271;SDS011;10295;49.812;9.866;2022-08-11T14:57:10;6.60;;;1.77;;
20271;SDS011;10295;49.812;9.866;2022-08-11T14:59:38;6.18;;;1.80;;
20271;SDS011;10295;49.812;9.866;2022-08-11T15:02:05;6.60;;;1.80;;
20271;SDS011;10295;49.812;9.866;2022-08-11T15:04:51;7.63;;;1.85;;
20271;SDS011;10295;49.812;9.866;2022-08-11T15:07:21;6.07;;;1.98;;
20271;SDS011;10295;49.812;9.866;2022-08-11T15:09:56;7.25;;;1.77;;
20271;SDS011;10295;49.812;9.866;2022-08-11T15:12:39;6.45;;;1.75;;
20271;SDS011;10295;49.812;9.866;2022-08-11T15:15:07;8.52;;;2.00;;
20271;SDS011;10295;49.812;9.866;2022-08-11T15:17:54;6.13;;;1.80;;
20271;SDS011;10295;49.812;9.866;2022-08-11T15:20:24;7.25;;;1.92;;
20271;SDS011;10295;49.812;9.866;2022-08-11T15:23:10;4.32;;;1.80;;
20271;SDS011;10295;49.812;9.866;2022-08-11T15:26:00;4.38;;;1.70;;
20271;SDS011;10295;49.812;9.866;2022-08-11T15:28:28;4.85;;;1.58;;
20271;SDS011;10295;49.812;9.866;2022-08-11T15:31:17;6.30;;;1.75;;
20271;SDS011;10295;49.812;9.866;2022-08-11T15:34:04;7.75;;;2.00;;
20271;SDS011;10295;49.812;9.866;2022-08-11T15:36:54;6.57;;;1.80;;
20271;SDS011;10295;49.812;9.866;2022-08-11T15:39:44;6.90;;;1.83;;
20271;SDS011;10295;49.812;9.866;2022-08-11T15:42:30;8.30;;;2.17;;
20271;SDS011;10295;49.812;9.866;2022-08-11T15:45:19;5.80;;;1.90;;
20271;SDS011;10295;49.812;9.866;2022-08-11T15:48:07;8.25;;;1.90;;
20271;SDS011;10295;49.812;9.866;2022-08-11T15:50:37;7.35;;;1.88;;
20271;SDS011;10295;49.812;9.866;2022-08-11T15:53:07;6.15;;;2.10;;
20271;SDS011;10295;49.812;9.866;2022-08-11T15:55:35;10.50;;;2.00;;
20271;SDS011;10295;49.812;9.866;2022-08-11T15:58:05;8.85;;;2.13;;
20271;SDS011;10295;49.812;9.866;2022-08-11T16:00:52;8.63;;;1.90;;
20271;SDS011;10295;49.812;9.866;2022-08-11T16:04:02;6.32;;;1.95;;
20271;SDS011;10295;49.812;9.866;2022-08-11T16:06:40;7.40;;;2.20;;
20271;SDS011;10295;49.812;9.866;2022-08-11T16:09:14;8.98;;;2.00;;
20271;SDS011;10295;49.812;9.866;2022-08-11T16:11:44;13.00;;;2.33;;
20271;SDS011;10295;49.812;9.866;2022-08-11T16:14:12;6.03;;;1.88;;
20271;SDS011;10295;49.812;9.866;2022-08-11T16:16:59;8.45;;;1.90;;
20271;SDS011;10295;49.812;9.866;2022-08-11T16:19:28;4.30;;;1.80;;
20271;SDS011;10295;49.812;9.866;2022-08-11T16:22:04;6.25;;;1.90;;
20271;SDS011;10295;49.812;9.866;2022-08-11T16:24:33;7.18;;;1.95;;
20271;SDS011;10295;49.812;9.866;2022-08-11T16:27:21;4.18;;;1.70;;
20271;SDS011;10295;49.812;9.866;2022-08-11T16:29:49;7.82;;;2.10;;
20271;SDS011;10295;49.812;9.866;2022-08-11T16:32:18;7.35;;;2.08;;
20271;SDS011;10295;49.812;9.866;2022-08-11T16:34:58;6.82;;;2.10;;
20271;SDS011;10295;49.812;9.866;2022-08-11T16:37:45;6.25;;;2.13;;
20271;SDS011;10295;49.812;9.866;2022-08-11T16:40:31;6.53;;;1.90;;
20271;SDS011;10295;49.812;9.866;2022-08-11T16:42:59;5.68;;;1.80;;
20271;SDS011;10295;49.812;9.866;2022-08-11T16:45:46;6.60;;;1.92;;
20271;SDS011;10295;49.812;9.866;2022-08-11T16:48:34;6.50;;;2.08;;
20271;SDS011;10295;49.812;9.866;2022-08-11T16:51:05;7.10;;;2.10;;
20271;SDS011;10295;49.812;9.866;2022-08-11T16:53:32;6.32;;;1.90;;
20271;SDS011;10295;49.812;9.866;2022-08-11T16:56:22;9.48;;;1.90;;
20271;SDS011;10295;49.812;9.866;2022-08-11T16:58:53;7.03;;;2.08;;
20271;SDS011;10295;49.812;9.866;2022-08-11T17:01:49;9.98;;;2.35;;
20271;SDS011;10295;49.812;9.866;2022-08-11T17:04:19;5.88;;;1.90;;
20271;SDS011;10295;49.812;9.866;2022-08-11T17:07:05;7.75;;;2.00;;
20271;SDS011;10295;49.812;9.866;2022-08-11T17:10:14;7.60;;;2.00;;
20271;SDS011;10295;49.812;9.866;2022-08-11T17:13:15;6.40;;;2.00;;
20271;SDS011;10295;49.812;9.866;2022-08-11T17:15:48;5.38;;;1.98;;
20271;SDS011;10295;49.812;9.866;2022-08-11T17:21:41;7.47;;;2.00;;
20271;SDS011;10295;49.812;9.866;2022-08-11T17:24:28;6.55;;;2.15;;
20271;SDS011;10295;49.812;9.866;2022-08-11T17:26:57;6.35;;;2.15;;
20271;SDS011;10295;49.812;9.866;2022-08-11T17:29:36;8.35;;;2.20;;
20271;SDS011;10295;49.812;9.866;2022-08-11T17:35:39;7.95;;;2.20;;
20271;SDS011;10295;49.812;9.866;2022-08-11T17:40:38;6.90;;;1.98;;
20271;SDS011;10295;49.812;9.866;2022-08-11T17:43:26;11.55;;;1.88;;
20271;SDS011;10295;49.812;9.866;2022-08-11T17:46:13;5.32;;;1.80;;
20271;SDS011;10295;49.812;9.866;2022-08-11T17:48:59;5.93;;;1.90;;
20271;SDS011;10295;49.812;9.866;2022-08-11T17:51:27;5.95;;;1.95;;
20271;SDS011;10295;49.812;9.866;2022-08-11T17:54:13;8.50;;;2.20;;
20271;SDS011;10295;49.812;9.866;2022-08-11T17:57:01;7.25;;;2.17;;
20271;SDS011;10295;49.812;9.866;2022-08-11T17:59:47;10.10;;;2.15;;
20271;SDS011;10295;49.812;9.866;2022-08-11T18:02:21;5.65;;;1.77;;
20271;SDS011;10295;49.812;9.866;2022-08-11T18:05:08;10.20;;;2.20;;
20271;SDS011;10295;49.812;9.866;2022-08-11T18:07:39;9.02;;;2.13;;
20271;SDS011;10295;49.812;9.866;2022-08-11T18:10:25;6.50;;;2.00;;
20271;SDS011;10295;49.812;9.866;2022-08-11T18:13:12;6.80;;;2.20;;
20271;SDS011;10295;49.812;9.866;2022-08-11T18:15:57;8.40;;;1.90;;
20271;SDS011;10295;49.812;9.866;2022-08-11T18:18:43;9.35;;;2.33;;
20271;SDS011;10295;49.812;9.866;2022-08-11T18:21:30;10.75;;;2.03;;
20271;SDS011;10295;49.812;9.866;2022-08-11T18:24:37;4.88;;;2.03;;
20271;SDS011;10295;49.812;9.866;2022-08-11T18:27:27;7.72;;;2.10;;
20271;SDS011;10295;49.812;9.866;2022-08-11T18:30:15;12.98;;;2.10;;
20271;SDS011;10295;49.812;9.866;2022-08-11T18:33:01;7.82;;;2.00;;
20271;SDS011;10295;49.812;9.866;2022-08-11T18:36:07;10.43;;;2.05;;
20271;SDS011;10295;49.812;9.866;2022-08-11T18:38:55;8.15;;;2.25;;
20271;SDS011;10295;49.812;9.866;2022-08-11T18:41:41;13.02;;;2.50;;
20271;SDS011;10295;49.812;9.866;2022-08-11T18:44:29;9.50;;;2.80;;
20271;SDS011;10295;49.812;9.866;2022-08-11T18:47:16;7.10;;;2.13;;
20271;SDS011;10295;49.812;9.866;2022-08-11T18:50:07;7.97;;;2.20;;
20271;SDS011;10295;49.812;9.866;2022-08-11T18:53:04;9.68;;;2.30;;
20271;SDS011;10295;49.812;9.866;2022-08-11T18:55:51;12.63;;;2.33;;
20271;SDS011;10295;49.812;9.866;2022-08-11T18:58:37;16.10;;;2.25;;
20271;SDS011;10295;49.812;9.866;2022-08-11T19:01:25;11.02;;;2.30;;
20271;SDS011;10295;49.812;9.866;2022-08-11T19:04:12;12.40;;;2.38;;
20271;SDS011;10295;49.812;9.866;2022-08-11T19:07:03;10.15;;;2.40;;
20271;SDS011;10295;49.812;9.866;2022-08-11T19:09:50;8.98;;;2.50;;
20271;SDS011;10295;49.812;9.866;2022-08-11T19:12:38;9.15;;;2.55;;
20271;SDS011;10295;49.812;9.866;2022-08-11T19:15:24;7.93;;;2.45;;
20271;SDS011;10295;49.812;9.866;2022-08-11T19:18:14;7.00;;;2.40;;
20271;SDS011;10295;49.812;9.866;2022-08-11T19:21:01;11.27;;;2.20;;
20271;SDS011;10295;49.812;9.866;2022-08-11T19:23:49;8.65;;;2.42;;
20271;SDS011;10295;49.812;9.866;2022-08-11T19:26:36;6.97;;;2.63;;
20271;SDS011;10295;49.812;9.866;2022-08-11T19:29:23;11.48;;;2.50;;
20271;SDS011;10295;49.812;9.866;2022-08-11T19:32:29;8.18;;;2.33;;
20271;SDS011;10295;49.812;9.866;2022-08-11T19:35:16;5.75;;;2.10;;
20271;SDS011;10295;49.812;9.866;2022-08-11T19:38:02;7.90;;;2.33;;